^^
Station Historical Data
Daily Summary for September 5, 2017 Units:  Both    English   Metric
« Previous Day
Next Day »
Daily Weekly Monthly Yearly Custom
  High: Low: Average:
Temperature: TemperatureF °F /  -17.8 °C 52.5 °F /  11.4 °C 67 °F /  19.4 °C
Dew Point: DewpointF °F /  -17.8 °C 29.8 °F /  -1.2 °C 35.2 °F /  1.8 °C
Humidity: Humidity% 19% 32%
Wind Speed: WindSpeedMPHmph /  0km/h - 1.8mph /  2.9km/h
Wind Gust: WindSpeedGustMPHmph /  0km/h - -
Wind- - SSW
Pressure: PressureIn in /  0 hPa 30.08 in /  1018.5 hPa -
Precipitation: 0.00 in /  0 mm    
Historical Graphs
 
 
Tabular Data for September 5, 2017
Time Temperature Dew Point Pressure Wind Wind Speed Wind Gust Humidity Rainfall Rate (Hourly) solar Conditions
TemperatureF °F /  -17.8 °C DewpointF °F /  -17.8 °C PressureInin /  0hPa Calm     Humidity% HourlyPrecipInin /  0mm SolarRadiationWatts/m^2 W/m2 Conditions
00:05 62.4 °F /  16.9 °C 32.9 °F /  0.5 °C 30.20in /  1022.6hPa Calm     33% 0.00in /  0mm 0.0 W/m2
00:11 62.1 °F /  16.7 °C 32.5 °F /  0.3 °C 30.19in /  1022.2hPa Calm     33% 0.00in /  0mm 0.0 W/m2
00:17 61.7 °F /  16.5 °C 32.4 °F /  0.2 °C 30.19in /  1022.2hPa Calm     33% 0.00in /  0mm 0.0 W/m2
00:23 61.3 °F /  16.3 °C 32.7 °F /  0.4 °C 30.19in /  1022.2hPa Calm   1.0mph /  1.6km/h 34% 0.00in /  0mm 0.0 W/m2
00:29 61.0 °F /  16.1 °C 32.4 °F /  0.2 °C 30.18in /  1021.9hPa ENE 0.9mph /  1.4km/h 1.0mph /  1.6km/h 34% 0.00in /  0mm 0.0 W/m2
00:35 60.8 °F /  16 °C 32.2 °F /  0.1 °C 30.18in /  1021.9hPa Calm   2.0mph /  3.2km/h 34% 0.00in /  0mm 0.0 W/m2
00:41 60.8 °F /  16 °C 32.2 °F /  0.1 °C 30.19in /  1022.2hPa Calm   3.0mph /  4.8km/h 34% 0.00in /  0mm 0.0 W/m2
00:48 60.8 °F /  16 °C 32.2 °F /  0.1 °C 30.19in /  1022.2hPa Calm   2.0mph /  3.2km/h 34% 0.00in /  0mm 0.0 W/m2
00:54 60.6 °F /  15.9 °C 32.2 °F /  0.1 °C 30.19in /  1022.2hPa East 2.0mph /  3.2km/h 4.0mph /  6.4km/h 34% 0.00in /  0mm 0.0 W/m2
01:00 60.8 °F /  16 °C 32.2 °F /  0.1 °C 30.18in /  1021.9hPa ESE 2.9mph /  4.7km/h 4.0mph /  6.4km/h 34% 0.00in /  0mm 0.0 W/m2
01:06 61.0 °F /  16.1 °C 32.4 °F /  0.2 °C 30.18in /  1021.9hPa ENE 2.0mph /  3.2km/h 6.0mph /  9.7km/h 34% 0.00in /  0mm 0.0 W/m2
01:12 61.2 °F /  16.2 °C 31.8 °F /  -0.1 °C 30.19in /  1022.2hPa SSE 0.9mph /  1.4km/h 6.0mph /  9.7km/h 33% 0.00in /  0mm 0.0 W/m2
01:18 61.2 °F /  16.2 °C 31.8 °F /  -0.1 °C 30.20in /  1022.6hPa WSW 0.9mph /  1.4km/h 1.0mph /  1.6km/h 33% 0.00in /  0mm 0.0 W/m2
01:24 61.2 °F /  16.2 °C 32.5 °F /  0.3 °C 30.20in /  1022.6hPa ENE 4.0mph /  6.4km/h 6.0mph /  9.7km/h 34% 0.00in /  0mm 0.0 W/m2
01:31 61.2 °F /  16.2 °C 31.8 °F /  -0.1 °C 30.19in /  1022.2hPa NE 2.0mph /  3.2km/h 3.0mph /  4.8km/h 33% 0.00in /  0mm 0.0 W/m2
01:37 61.3 °F /  16.3 °C 32.0 °F /  0 °C 30.20in /  1022.6hPa ENE 2.0mph /  3.2km/h 4.0mph /  6.4km/h 33% 0.00in /  0mm 0.0 W/m2
01:43 61.3 °F /  16.3 °C 32.0 °F /  0 °C 30.20in /  1022.6hPa ENE 0.9mph /  1.4km/h 2.0mph /  3.2km/h 33% 0.00in /  0mm 0.0 W/m2
01:49 61.3 °F /  16.3 °C 31.3 °F /  -0.4 °C 30.19in /  1022.2hPa East 2.0mph /  3.2km/h 3.0mph /  4.8km/h 32% 0.00in /  0mm 0.0 W/m2
01:55 61.0 °F /  16.1 °C 31.6 °F /  -0.2 °C 30.19in /  1022.2hPa East 0.9mph /  1.4km/h 1.0mph /  1.6km/h 33% 0.00in /  0mm 0.0 W/m2
02:01 60.6 °F /  15.9 °C 31.3 °F /  -0.4 °C 30.19in /  1022.2hPa ENE 0.9mph /  1.4km/h 2.0mph /  3.2km/h 33% 0.00in /  0mm 0.0 W/m2
02:08 60.4 °F /  15.8 °C 31.3 °F /  -0.4 °C 30.19in /  1022.2hPa Calm   2.0mph /  3.2km/h 33% 0.00in /  0mm 0.0 W/m2
02:14 60.3 °F /  15.7 °C 31.8 °F /  -0.1 °C 30.19in /  1022.2hPa NE 0.9mph /  1.4km/h 5.0mph /  8km/h 34% 0.00in /  0mm 0.0 W/m2
02:20 60.3 °F /  15.7 °C 31.1 °F /  -0.5 °C 30.19in /  1022.2hPa East 0.9mph /  1.4km/h 3.0mph /  4.8km/h 33% 0.00in /  0mm 0.0 W/m2
02:26 60.1 °F /  15.6 °C 30.9 °F /  -0.6 °C 30.19in /  1022.2hPa ENE 2.0mph /  3.2km/h 2.0mph /  3.2km/h 33% 0.00in /  0mm 0.0 W/m2
02:32 59.7 °F /  15.4 °C 30.6 °F /  -0.8 °C 30.19in /  1022.2hPa ENE 2.0mph /  3.2km/h 2.0mph /  3.2km/h 33% 0.00in /  0mm 0.0 W/m2
02:38 59.5 °F /  15.3 °C 30.4 °F /  -0.9 °C 30.18in /  1021.9hPa ENE 0.9mph /  1.4km/h 3.0mph /  4.8km/h 33% 0.00in /  0mm 0.0 W/m2
02:44 59.4 °F /  15.2 °C 30.9 °F /  -0.6 °C 30.18in /  1021.9hPa Calm   1.0mph /  1.6km/h 34% 0.00in /  0mm 0.0 W/m2
02:50 59.0 °F /  15 °C 30.7 °F /  -0.7 °C 30.18in /  1021.9hPa ENE 2.0mph /  3.2km/h 2.0mph /  3.2km/h 34% 0.00in /  0mm 0.0 W/m2
02:56 58.6 °F /  14.8 °C 30.4 °F /  -0.9 °C 30.17in /  1021.6hPa Calm   2.0mph /  3.2km/h 34% 0.00in /  0mm 0.0 W/m2
03:02 58.5 °F /  14.7 °C 30.2 °F /  -1 °C 30.17in /  1021.6hPa ENE 0.9mph /  1.4km/h 2.0mph /  3.2km/h 34% 0.00in /  0mm 0.0 W/m2
03:08 58.3 °F /  14.6 °C 30.0 °F /  -1.1 °C 30.17in /  1021.6hPa ENE 0.9mph /  1.4km/h 4.0mph /  6.4km/h 34% 0.00in /  0mm 0.0 W/m2
03:14 58.1 °F /  14.5 °C 29.8 °F /  -1.2 °C 30.17in /  1021.6hPa ENE 2.9mph /  4.7km/h 4.0mph /  6.4km/h 34% 0.00in /  0mm 0.0 W/m2
03:20 58.3 °F /  14.6 °C 30.0 °F /  -1.1 °C 30.17in /  1021.6hPa ENE 0.9mph /  1.4km/h 3.0mph /  4.8km/h 34% 0.00in /  0mm 0.0 W/m2
03:26 58.5 °F /  14.7 °C 30.2 °F /  -1 °C 30.17in /  1021.6hPa Calm   1.0mph /  1.6km/h 34% 0.00in /  0mm 0.0 W/m2
03:32 58.5 °F /  14.7 °C 30.2 °F /  -1 °C 30.16in /  1021.2hPa NE 2.0mph /  3.2km/h 2.0mph /  3.2km/h 34% 0.00in /  0mm 0.0 W/m2
03:38 58.3 °F /  14.6 °C 30.0 °F /  -1.1 °C 30.17in /  1021.6hPa Calm   1.0mph /  1.6km/h 34% 0.00in /  0mm 0.0 W/m2
03:44 58.1 °F /  14.5 °C 29.8 °F /  -1.2 °C 30.16in /  1021.2hPa Calm   2.0mph /  3.2km/h 34% 0.00in /  0mm 0.0 W/m2
03:50 57.9 °F /  14.4 °C 30.4 °F /  -0.9 °C 30.16in /  1021.2hPa Calm   1.0mph /  1.6km/h 35% 0.00in /  0mm 0.0 W/m2
03:56 57.7 °F /  14.3 °C 30.2 °F /  -1 °C 30.16in /  1021.2hPa Calm     35% 0.00in /  0mm 0.0 W/m2
04:02 57.6 °F /  14.2 °C 30.0 °F /  -1.1 °C 30.16in /  1021.2hPa Calm   1.0mph /  1.6km/h 35% 0.00in /  0mm 0.0 W/m2
04:08 57.4 °F /  14.1 °C 30.6 °F /  -0.8 °C 30.16in /  1021.2hPa Calm   2.0mph /  3.2km/h 36% 0.00in /  0mm 0.0 W/m2
04:14 57.0 °F /  13.9 °C 30.4 °F /  -0.9 °C 30.16in /  1021.2hPa Calm   1.0mph /  1.6km/h 36% 0.00in /  0mm 0.0 W/m2
04:20 56.8 °F /  13.8 °C 30.9 °F /  -0.6 °C 30.16in /  1021.2hPa Calm   2.0mph /  3.2km/h 37% 0.00in /  0mm 0.0 W/m2
04:26 56.7 °F /  13.7 °C 30.7 °F /  -0.7 °C 30.16in /  1021.2hPa Calm   2.0mph /  3.2km/h 37% 0.00in /  0mm 0.0 W/m2
04:32 56.5 °F /  13.6 °C 30.6 °F /  -0.8 °C 30.16in /  1021.2hPa Calm   1.0mph /  1.6km/h 37% 0.00in /  0mm 0.0 W/m2
04:38 56.1 °F /  13.4 °C 30.9 °F /  -0.6 °C 30.16in /  1021.2hPa Calm     38% 0.00in /  0mm 0.0 W/m2
04:44 55.9 °F /  13.3 °C 30.7 °F /  -0.7 °C 30.16in /  1021.2hPa ESE 0.9mph /  1.4km/h 1.0mph /  1.6km/h 38% 0.00in /  0mm 0.0 W/m2
04:50 55.8 °F /  13.2 °C 30.6 °F /  -0.8 °C 30.16in /  1021.2hPa Calm   1.0mph /  1.6km/h 38% 0.00in /  0mm 0.0 W/m2
04:56 55.6 °F /  13.1 °C 30.4 °F /  -0.9 °C 30.16in /  1021.2hPa Calm   1.0mph /  1.6km/h 38% 0.00in /  0mm 0.0 W/m2
05:02 55.4 °F /  13 °C 30.9 °F /  -0.6 °C 30.17in /  1021.6hPa East 0.9mph /  1.4km/h 2.0mph /  3.2km/h 39% 0.00in /  0mm 0.0 W/m2
05:08 55.0 °F /  12.8 °C 30.6 °F /  -0.8 °C 30.17in /  1021.6hPa East 0.9mph /  1.4km/h 1.0mph /  1.6km/h 39% 0.00in /  0mm 0.0 W/m2
05:16 54.9 °F /  12.7 °C 30.9 °F /  -0.6 °C 30.16in /  1021.2hPa ENE 2.0mph /  3.2km/h 2.0mph /  3.2km/h 40% 0.00in /  0mm 0.0 W/m2
05:22 54.9 °F /  12.7 °C 30.9 °F /  -0.6 °C 30.17in /  1021.6hPa East 2.0mph /  3.2km/h 2.0mph /  3.2km/h 40% 0.00in /  0mm 0.0 W/m2
05:28 54.9 °F /  12.7 °C 30.9 °F /  -0.6 °C 30.17in /  1021.6hPa Calm   2.0mph /  3.2km/h 40% 0.00in /  0mm 0.0 W/m2
05:34 54.9 °F /  12.7 °C 30.9 °F /  -0.6 °C 30.17in /  1021.6hPa ENE 0.9mph /  1.4km/h 1.0mph /  1.6km/h 40% 0.00in /  0mm 0.0 W/m2
05:40 54.9 °F /  12.7 °C 30.9 °F /  -0.6 °C 30.17in /  1021.6hPa Calm   1.0mph /  1.6km/h 40% 0.00in /  0mm 0.0 W/m2
05:46 54.7 °F /  12.6 °C 30.9 °F /  -0.6 °C 30.17in /  1021.6hPa Calm     40% 0.00in /  0mm 0.0 W/m2
05:53 54.5 °F /  12.5 °C 31.3 °F /  -0.4 °C 30.17in /  1021.6hPa Calm     41% 0.00in /  0mm 0.0 W/m2
05:58 54.3 °F /  12.4 °C 31.1 °F /  -0.5 °C 30.17in /  1021.6hPa Calm     41% 0.00in /  0mm 0.0 W/m2
06:04 54.1 °F /  12.3 °C 31.5 °F /  -0.3 °C 30.18in /  1021.9hPa Calm     42% 0.00in /  0mm 0.0 W/m2
06:10 54.0 °F /  12.2 °C 31.5 °F /  -0.3 °C 30.18in /  1021.9hPa Calm   1.0mph /  1.6km/h 42% 0.00in /  0mm 0.0 W/m2
06:16 53.8 °F /  12.1 °C 31.3 °F /  -0.4 °C 30.18in /  1021.9hPa Calm   1.0mph /  1.6km/h 42% 0.00in /  0mm 0.0 W/m2
06:22 53.4 °F /  11.9 °C 31.5 °F /  -0.3 °C 30.18in /  1021.9hPa Calm     43% 0.00in /  0mm 0.0 W/m2
06:26 53.4 °F /  11.9 °C 31.5 °F /  -0.3 °C 30.18in /  1021.9hPa Calm     43% 0.00in /  0mm 0.0 W/m2
06:32 53.2 °F /  11.8 °C 31.3 °F /  -0.4 °C 30.18in /  1021.9hPa Calm     43% 0.00in /  0mm 0.0 W/m2
06:38 53.1 °F /  11.7 °C 31.6 °F /  -0.2 °C 30.19in /  1022.2hPa Calm     44% 0.00in /  0mm 0.0 W/m2
06:45 52.9 °F /  11.6 °C 31.6 °F /  -0.2 °C 30.19in /  1022.2hPa Calm     44% 0.00in /  0mm 0.0 W/m2
06:49 52.9 °F /  11.6 °C 31.6 °F /  -0.2 °C 30.19in /  1022.2hPa Calm     44% 0.00in /  0mm 0.0 W/m2
06:55 52.5 °F /  11.4 °C 31.3 °F /  -0.4 °C 30.19in /  1022.2hPa Calm   1.0mph /  1.6km/h 44% 0.00in /  0mm 0.0 W/m2
07:00 52.5 °F /  11.4 °C 31.8 °F /  -0.1 °C 30.19in /  1022.2hPa Calm   1.0mph /  1.6km/h 45% 0.00in /  0mm 0.0 W/m2
07:07 52.5 °F /  11.4 °C 31.8 °F /  -0.1 °C 30.19in /  1022.2hPa Calm   1.0mph /  1.6km/h 45% 0.00in /  0mm 7.0 W/m2
07:12 52.5 °F /  11.4 °C 31.8 °F /  -0.1 °C 30.19in /  1022.2hPa Calm   1.0mph /  1.6km/h 45% 0.00in /  0mm 11.0 W/m2
07:19 52.9 °F /  11.6 °C 32.2 °F /  0.1 °C 30.20in /  1022.6hPa Calm   2.0mph /  3.2km/h 45% 0.00in /  0mm 16.0 W/m2
07:25 52.9 °F /  11.6 °C 32.2 °F /  0.1 °C 30.20in /  1022.6hPa Calm   1.0mph /  1.6km/h 45% 0.00in /  0mm 21.0 W/m2
07:31 53.1 °F /  11.7 °C 32.4 °F /  0.2 °C 30.20in /  1022.6hPa Calm     45% 0.00in /  0mm 25.0 W/m2
07:37 53.1 °F /  11.7 °C 32.9 °F /  0.5 °C 30.20in /  1022.6hPa Calm   1.0mph /  1.6km/h 46% 0.00in /  0mm 28.0 W/m2
07:42 53.2 °F /  11.8 °C 33.1 °F /  0.6 °C 30.20in /  1022.6hPa Calm   1.0mph /  1.6km/h 46% 0.00in /  0mm 32.0 W/m2
07:49 53.6 °F /  12 °C 33.3 °F /  0.7 °C 30.21in /  1022.9hPa Calm   1.0mph /  1.6km/h 46% 0.00in /  0mm 33.0 W/m2
07:55 54.0 °F /  12.2 °C 33.6 °F /  0.9 °C 30.20in /  1022.6hPa Calm   1.0mph /  1.6km/h 46% 0.00in /  0mm 37.0 W/m2
08:01 54.3 °F /  12.4 °C 33.4 °F /  0.8 °C 30.20in /  1022.6hPa East 0.9mph /  1.4km/h 1.0mph /  1.6km/h 45% 0.00in /  0mm 37.0 W/m2
08:07 54.9 °F /  12.7 °C 34.5 °F /  1.4 °C 30.20in /  1022.6hPa East 0.9mph /  1.4km/h 1.0mph /  1.6km/h 46% 0.00in /  0mm 47.0 W/m2
08:13 55.2 °F /  12.9 °C 33.6 °F /  0.9 °C 30.21in /  1022.9hPa Calm     44% 0.00in /  0mm 63.0 W/m2
08:19 55.6 °F /  13.1 °C 34.0 °F /  1.1 °C 30.21in /  1022.9hPa Calm     44% 0.00in /  0mm 65.0 W/m2
08:25 56.1 °F /  13.4 °C 35.1 °F /  1.7 °C 30.21in /  1022.9hPa Calm     45% 0.00in /  0mm 65.0 W/m2
08:31 56.5 °F /  13.6 °C 34.9 °F /  1.6 °C 30.21in /  1022.9hPa Calm     44% 0.00in /  0mm 77.0 W/m2
08:37 56.7 °F /  13.7 °C 34.3 °F /  1.3 °C 30.21in /  1022.9hPa Calm     43% 0.00in /  0mm 88.0 W/m2
08:43 57.0 °F /  13.9 °C 34.7 °F /  1.5 °C 30.21in /  1022.9hPa Calm     43% 0.00in /  0mm 91.0 W/m2
08:49 57.6 °F /  14.2 °C 35.2 °F /  1.8 °C 30.21in /  1022.9hPa Calm   1.0mph /  1.6km/h 43% 0.00in /  0mm 91.0 W/m2
08:55 58.3 °F /  14.6 °C 34.7 °F /  1.5 °C 30.21in /  1022.9hPa Calm     41% 0.00in /  0mm 86.0 W/m2
09:01 59.4 °F /  15.2 °C 35.1 °F /  1.7 °C 30.21in /  1022.9hPa NW 2.0mph /  3.2km/h 2.0mph /  3.2km/h 40% 0.00in /  0mm 77.0 W/m2
09:08 60.4 °F /  15.8 °C 34.7 °F /  1.5 °C 30.21in /  1022.9hPa NW 2.0mph /  3.2km/h 3.0mph /  4.8km/h 38% 0.00in /  0mm 81.0 W/m2
09:15 62.2 °F /  16.8 °C 34.9 °F /  1.6 °C 30.21in /  1022.9hPa Calm   2.0mph /  3.2km/h 36% 0.00in /  0mm 83.0 W/m2
09:21 63.3 °F /  17.4 °C 34.5 °F /  1.4 °C 30.21in /  1022.9hPa North 2.0mph /  3.2km/h 5.0mph /  8km/h 34% 0.00in /  0mm 84.0 W/m2
09:27 64.2 °F /  17.9 °C 34.5 °F /  1.4 °C 30.21in /  1022.9hPa Calm   2.0mph /  3.2km/h 33% 0.00in /  0mm 86.0 W/m2
09:33 65.1 °F /  18.4 °C 35.2 °F /  1.8 °C 30.21in /  1022.9hPa West 2.0mph /  3.2km/h 2.0mph /  3.2km/h 33% 0.00in /  0mm 91.0 W/m2
09:39 65.8 °F /  18.8 °C 35.2 °F /  1.8 °C 30.21in /  1022.9hPa Calm   3.0mph /  4.8km/h 32% 0.00in /  0mm 469.0 W/m2
09:45 66.9 °F /  19.4 °C 35.2 °F /  1.8 °C 30.21in /  1022.9hPa Calm   4.0mph /  6.4km/h 31% 0.00in /  0mm 490.0 W/m2
09:51 68.0 °F /  20 °C 35.4 °F /  1.9 °C 30.21in /  1022.9hPa NW 0.9mph /  1.4km/h 2.0mph /  3.2km/h 30% 0.00in /  0mm 510.0 W/m2
09:57 68.7 °F /  20.4 °C 35.2 °F /  1.8 °C 30.21in /  1022.9hPa West 2.0mph /  3.2km/h 3.0mph /  4.8km/h 29% 0.00in /  0mm 529.0 W/m2
10:03 69.6 °F /  20.9 °C 36.0 °F /  2.2 °C 30.21in /  1022.9hPa WNW 0.9mph /  1.4km/h 6.0mph /  9.7km/h 29% 0.00in /  0mm 547.0 W/m2
10:09 70.5 °F /  21.4 °C 35.8 °F /  2.1 °C 30.20in /  1022.6hPa North 0.9mph /  1.4km/h 4.0mph /  6.4km/h 28% 0.00in /  0mm 568.0 W/m2
10:15 71.4 °F /  21.9 °C 35.8 °F /  2.1 °C 30.21in /  1022.9hPa Calm   8.0mph /  12.9km/h 27% 0.00in /  0mm 582.0 W/m2
10:21 72.1 °F /  22.3 °C 36.3 °F /  2.4 °C 30.21in /  1022.9hPa Calm   5.0mph /  8km/h 27% 0.00in /  0mm 594.0 W/m2
10:27 72.5 °F /  22.5 °C 35.6 °F /  2 °C 30.21in /  1022.9hPa WNW 2.0mph /  3.2km/h 9.0mph /  14.5km/h 26% 0.00in /  0mm 608.0 W/m2
10:33 72.9 °F /  22.7 °C 36.0 °F /  2.2 °C 30.21in /  1022.9hPa North 2.0mph /  3.2km/h 7.0mph /  11.3km/h 26% 0.00in /  0mm 622.0 W/m2
10:39 73.6 °F /  23.1 °C 36.5 °F /  2.5 °C 30.20in /  1022.6hPa North 0.9mph /  1.4km/h 3.0mph /  4.8km/h 26% 0.00in /  0mm 633.0 W/m2
10:45 74.1 °F /  23.4 °C 36.0 °F /  2.2 °C 30.20in /  1022.6hPa WNW 2.0mph /  3.2km/h 10.0mph /  16.1km/h 25% 0.00in /  0mm 649.0 W/m2
10:51 74.1 °F /  23.4 °C 36.0 °F /  2.2 °C 30.20in /  1022.6hPa North 4.9mph /  7.9km/h 9.0mph /  14.5km/h 25% 0.00in /  0mm 664.0 W/m2
10:57 74.7 °F /  23.7 °C 35.4 °F /  1.9 °C 30.20in /  1022.6hPa NW 2.0mph /  3.2km/h 8.0mph /  12.9km/h 24% 0.00in /  0mm 679.0 W/m2
11:03 74.8 °F /  23.8 °C 35.6 °F /  2 °C 30.20in /  1022.6hPa NW 4.9mph /  7.9km/h 7.0mph /  11.3km/h 24% 0.00in /  0mm 684.0 W/m2
11:09 75.2 °F /  24 °C 36.0 °F /  2.2 °C 30.19in /  1022.2hPa WNW 2.9mph /  4.7km/h 7.0mph /  11.3km/h 24% 0.00in /  0mm 694.0 W/m2
11:15 75.6 °F /  24.2 °C 36.3 °F /  2.4 °C 30.19in /  1022.2hPa NNW 2.9mph /  4.7km/h 7.0mph /  11.3km/h 24% 0.00in /  0mm 708.0 W/m2
11:21 75.9 °F /  24.4 °C 35.4 °F /  1.9 °C 30.19in /  1022.2hPa NE 4.9mph /  7.9km/h 8.0mph /  12.9km/h 23% 0.00in /  0mm 715.0 W/m2
11:27 76.1 °F /  24.5 °C 35.6 °F /  2 °C 30.19in /  1022.2hPa NNW 4.0mph /  6.4km/h 10.0mph /  16.1km/h 23% 0.00in /  0mm 726.0 W/m2
11:33 76.6 °F /  24.8 °C 36.1 °F /  2.3 °C 30.18in /  1021.9hPa WNW 0.9mph /  1.4km/h 8.0mph /  12.9km/h 23% 0.00in /  0mm 735.0 W/m2
11:39 77.2 °F /  25.1 °C 35.4 °F /  1.9 °C 30.18in /  1021.9hPa NNW 0.9mph /  1.4km/h 7.0mph /  11.3km/h 22% 0.00in /  0mm 740.0 W/m2
11:47 77.7 °F /  25.4 °C 35.8 °F /  2.1 °C 30.18in /  1021.9hPa NW 4.9mph /  7.9km/h 5.0mph /  8km/h 22% 0.00in /  0mm 758.0 W/m2
11:53 77.9 °F /  25.5 °C 34.9 °F /  1.6 °C 30.18in /  1021.9hPa NNW 2.9mph /  4.7km/h 9.0mph /  14.5km/h 21% 0.00in /  0mm 765.0 W/m2
11:59 78.3 °F /  25.7 °C 35.1 °F /  1.7 °C 30.18in /  1021.9hPa WNW 0.9mph /  1.4km/h 11.0mph /  17.7km/h 21% 0.00in /  0mm 758.0 W/m2
12:05 78.4 °F /  25.8 °C 35.2 °F /  1.8 °C 30.17in /  1021.6hPa NNE 13.0mph /  20.9km/h 17.0mph /  27.4km/h 21% 0.00in /  0mm 763.0 W/m2
12:11 78.4 °F /  25.8 °C 35.2 °F /  1.8 °C 30.17in /  1021.6hPa North 0.9mph /  1.4km/h 4.0mph /  6.4km/h 21% 0.00in /  0mm 761.0 W/m2
12:18 79.0 °F /  26.1 °C 35.8 °F /  2.1 °C 30.16in /  1021.2hPa NW 2.9mph /  4.7km/h 12.0mph /  19.3km/h 21% 0.00in /  0mm 768.0 W/m2
12:24 79.7 °F /  26.5 °C 35.1 °F /  1.7 °C 30.16in /  1021.2hPa SW 4.0mph /  6.4km/h 10.0mph /  16.1km/h 20% 0.00in /  0mm 766.0 W/m2
12:30 80.1 °F /  26.7 °C 35.4 °F /  1.9 °C 30.16in /  1021.2hPa West 2.0mph /  3.2km/h 9.0mph /  14.5km/h 20% 0.00in /  0mm 768.0 W/m2
12:36 80.1 °F /  26.7 °C 35.4 °F /  1.9 °C 30.16in /  1021.2hPa West 2.0mph /  3.2km/h 9.0mph /  14.5km/h 20% 0.00in /  0mm 772.0 W/m2
12:42 80.2 °F /  26.8 °C 35.6 °F /  2 °C 30.15in /  1020.9hPa WNW 0.9mph /  1.4km/h 13.0mph /  20.9km/h 20% 0.00in /  0mm 770.0 W/m2
12:48 80.6 °F /  27 °C 35.8 °F /  2.1 °C 30.14in /  1020.5hPa NNW 8.1mph /  13km/h 11.0mph /  17.7km/h 20% 0.00in /  0mm 766.0 W/m2
12:54 80.8 °F /  27.1 °C 36.0 °F /  2.2 °C 30.14in /  1020.5hPa NW 2.0mph /  3.2km/h 8.0mph /  12.9km/h 20% 0.00in /  0mm 773.0 W/m2
13:00 81.0 °F /  27.2 °C 37.4 °F /  3 °C 30.13in /  1020.2hPa West 4.9mph /  7.9km/h 7.0mph /  11.3km/h 21% 0.00in /  0mm 766.0 W/m2
13:06 81.0 °F /  27.2 °C 36.1 °F /  2.3 °C 30.13in /  1020.2hPa WSW 4.0mph /  6.4km/h 6.0mph /  9.7km/h 20% 0.00in /  0mm 765.0 W/m2
13:12 81.1 °F /  27.3 °C 36.3 °F /  2.4 °C 30.13in /  1020.2hPa NE 4.9mph /  7.9km/h 8.0mph /  12.9km/h 20% 0.00in /  0mm 756.0 W/m2
13:18 81.0 °F /  27.2 °C 36.1 °F /  2.3 °C 30.13in /  1020.2hPa WNW 2.0mph /  3.2km/h 12.0mph /  19.3km/h 20% 0.00in /  0mm 749.0 W/m2
13:24 81.1 °F /  27.3 °C 36.3 °F /  2.4 °C 30.13in /  1020.2hPa WNW 12.1mph /  19.5km/h 14.0mph /  22.5km/h 20% 0.00in /  0mm 744.0 W/m2
13:30 81.3 °F /  27.4 °C 36.5 °F /  2.5 °C 30.12in /  1019.9hPa NNW 2.9mph /  4.7km/h 7.0mph /  11.3km/h 20% 0.00in /  0mm 738.0 W/m2
13:36 81.9 °F /  27.7 °C 36.9 °F /  2.7 °C 30.12in /  1019.9hPa NNW 6.9mph /  11.1km/h 7.0mph /  11.3km/h 20% 0.00in /  0mm 733.0 W/m2
13:42 81.7 °F /  27.6 °C 36.7 °F /  2.6 °C 30.11in /  1019.5hPa WNW 4.0mph /  6.4km/h 10.0mph /  16.1km/h 20% 0.00in /  0mm 724.0 W/m2
13:48 81.5 °F /  27.5 °C 36.5 °F /  2.5 °C 30.11in /  1019.5hPa West 0.9mph /  1.4km/h 4.0mph /  6.4km/h 20% 0.00in /  0mm 721.0 W/m2
13:54 81.7 °F /  27.6 °C 36.7 °F /  2.6 °C 30.11in /  1019.5hPa NNW 4.9mph /  7.9km/h 9.0mph /  14.5km/h 20% 0.00in /  0mm 710.0 W/m2
14:00 81.7 °F /  27.6 °C 36.7 °F /  2.6 °C 30.11in /  1019.5hPa NW 6.9mph /  11.1km/h 9.0mph /  14.5km/h 20% 0.00in /  0mm 701.0 W/m2
14:06 81.9 °F /  27.7 °C 36.9 °F /  2.7 °C 30.11in /  1019.5hPa WSW 2.9mph /  4.7km/h 8.0mph /  12.9km/h 20% 0.00in /  0mm 693.0 W/m2
14:12 82.2 °F /  27.9 °C 35.8 °F /  2.1 °C 30.10in /  1019.2hPa WNW 4.0mph /  6.4km/h 10.0mph /  16.1km/h 19% 0.00in /  0mm 686.0 W/m2
14:18 82.6 °F /  28.1 °C 37.4 °F /  3 °C 30.10in /  1019.2hPa NE 2.9mph /  4.7km/h 6.0mph /  9.7km/h 20% 0.00in /  0mm 652.0 W/m2
14:24 82.8 °F /  28.2 °C 36.3 °F /  2.4 °C 30.10in /  1019.2hPa NNW 13.0mph /  20.9km/h 13.0mph /  20.9km/h 19% 0.00in /  0mm 668.0 W/m2
14:30 82.2 °F /  27.9 °C 35.8 °F /  2.1 °C 30.10in /  1019.2hPa NW 4.0mph /  6.4km/h 14.0mph /  22.5km/h 19% 0.00in /  0mm 670.0 W/m2
14:36 82.4 °F /  28 °C 37.2 °F /  2.9 °C 30.10in /  1019.2hPa WNW 8.1mph /  13km/h 12.0mph /  19.3km/h 20% 0.00in /  0mm 679.0 W/m2
14:42 82.6 °F /  28.1 °C 36.1 °F /  2.3 °C 30.09in /  1018.8hPa WNW 8.1mph /  13km/h 13.0mph /  20.9km/h 19% 0.00in /  0mm 650.0 W/m2
14:48 82.6 °F /  28.1 °C 36.1 °F /  2.3 °C 30.09in /  1018.8hPa NNW 2.9mph /  4.7km/h 12.0mph /  19.3km/h 19% 0.00in /  0mm 638.0 W/m2
14:54 82.2 °F /  27.9 °C 35.8 °F /  2.1 °C 30.09in /  1018.8hPa NNW 2.0mph /  3.2km/h 15.0mph /  24.1km/h 19% 0.00in /  0mm 613.0 W/m2
15:00 81.9 °F /  27.7 °C 35.6 °F /  2 °C 30.09in /  1018.8hPa NNW 6.9mph /  11.1km/h 17.0mph /  27.4km/h 19% 0.00in /  0mm 606.0 W/m2
15:06 81.7 °F /  27.6 °C 36.7 °F /  2.6 °C 30.09in /  1018.8hPa NNW 12.1mph /  19.5km/h 13.0mph /  20.9km/h 20% 0.00in /  0mm 610.0 W/m2
15:12 81.9 °F /  27.7 °C 35.6 °F /  2 °C 30.09in /  1018.8hPa NNW 8.9mph /  14.3km/h 12.0mph /  19.3km/h 19% 0.00in /  0mm 582.0 W/m2
15:18 82.0 °F /  27.8 °C 37.0 °F /  2.8 °C 30.09in /  1018.8hPa WNW 8.1mph /  13km/h 12.0mph /  19.3km/h 20% 0.00in /  0mm 561.0 W/m2
15:24 82.2 °F /  27.9 °C 35.8 °F /  2.1 °C 30.09in /  1018.8hPa NW 2.0mph /  3.2km/h 17.0mph /  27.4km/h 19% 0.00in /  0mm 529.0 W/m2
15:31 82.0 °F /  27.8 °C 35.8 °F /  2.1 °C 30.09in /  1018.8hPa NW 4.0mph /  6.4km/h 16.0mph /  25.7km/h 19% 0.00in /  0mm 526.0 W/m2
15:37 82.0 °F /  27.8 °C 35.8 °F /  2.1 °C 30.09in /  1018.8hPa NNW 4.0mph /  6.4km/h 11.0mph /  17.7km/h 19% 0.00in /  0mm 519.0 W/m2
15:43 81.9 °F /  27.7 °C 35.6 °F /  2 °C 30.09in /  1018.8hPa NW 4.9mph /  7.9km/h 9.0mph /  14.5km/h 19% 0.00in /  0mm 171.0 W/m2
15:49 81.9 °F /  27.7 °C 35.6 °F /  2 °C 30.08in /  1018.5hPa NW 4.0mph /  6.4km/h 7.0mph /  11.3km/h 19% 0.00in /  0mm 482.0 W/m2
15:55 82.0 °F /  27.8 °C 35.8 °F /  2.1 °C 30.08in /  1018.5hPa NNE 6.9mph /  11.1km/h 12.0mph /  19.3km/h 19% 0.00in /  0mm 455.0 W/m2
16:01 81.9 °F /  27.7 °C 35.6 °F /  2 °C 30.08in /  1018.5hPa NW 6.9mph /  11.1km/h 12.0mph /  19.3km/h 19% 0.00in /  0mm 171.0 W/m2
16:07 81.0 °F /  27.2 °C 36.1 °F /  2.3 °C 30.09in /  1018.8hPa NW 2.0mph /  3.2km/h 9.0mph /  14.5km/h 20% 0.00in /  0mm 162.0 W/m2
16:13 80.4 °F /  26.9 °C 35.6 °F /  2 °C 30.09in /  1018.8hPa WSW 2.9mph /  4.7km/h 7.0mph /  11.3km/h 20% 0.00in /  0mm 279.0 W/m2
16:19 80.4 °F /  26.9 °C 35.6 °F /  2 °C 30.08in /  1018.5hPa Calm   2.0mph /  3.2km/h 20% 0.00in /  0mm 102.0 W/m2
16:25 80.2 °F /  26.8 °C 35.6 °F /  2 °C 30.09in /  1018.8hPa Calm   4.0mph /  6.4km/h 20% 0.00in /  0mm 149.0 W/m2
16:31 80.2 °F /  26.8 °C 36.7 °F /  2.6 °C 30.08in /  1018.5hPa North 2.9mph /  4.7km/h 11.0mph /  17.7km/h 21% 0.00in /  0mm 378.0 W/m2
16:38 80.4 °F /  26.9 °C 35.6 °F /  2 °C 30.09in /  1018.8hPa Calm   10.0mph /  16.1km/h 20% 0.00in /  0mm 179.0 W/m2
16:44 79.9 °F /  26.6 °C 35.2 °F /  1.8 °C 30.09in /  1018.8hPa North 8.9mph /  14.3km/h 20.0mph /  32.2km/h 20% 0.00in /  0mm 338.0 W/m2
16:50 78.3 °F /  25.7 °C 34.0 °F /  1.1 °C 30.10in /  1019.2hPa NNE 12.1mph /  19.5km/h 17.0mph /  27.4km/h 20% 0.00in /  0mm 214.0 W/m2
16:56 77.4 °F /  25.2 °C 34.3 °F /  1.3 °C 30.10in /  1019.2hPa North 6.9mph /  11.1km/h 16.0mph /  25.7km/h 21% 0.00in /  0mm 315.0 W/m2
17:02 77.5 °F /  25.3 °C 34.5 °F /  1.4 °C 30.10in /  1019.2hPa NNW 6.0mph /  9.7km/h 11.0mph /  17.7km/h 21% 0.00in /  0mm 308.0 W/m2
17:08 78.1 °F /  25.6 °C 34.9 °F /  1.6 °C 30.10in /  1019.2hPa North 4.0mph /  6.4km/h 10.0mph /  16.1km/h 21% 0.00in /  0mm 176.0 W/m2
17:14 78.3 °F /  25.7 °C 35.1 °F /  1.7 °C 30.10in /  1019.2hPa NNW 8.1mph /  13km/h 10.0mph /  16.1km/h 21% 0.00in /  0mm 216.0 W/m2
17:20 78.1 °F /  25.6 °C 34.9 °F /  1.6 °C 30.10in /  1019.2hPa NNW 2.9mph /  4.7km/h 15.0mph /  24.1km/h 21% 0.00in /  0mm 188.0 W/m2
17:26 77.7 °F /  25.4 °C 35.8 °F /  2.1 °C 30.10in /  1019.2hPa NE 6.0mph /  9.7km/h 6.0mph /  9.7km/h 22% 0.00in /  0mm 162.0 W/m2
17:32 77.7 °F /  25.4 °C 35.8 °F /  2.1 °C 30.11in /  1019.5hPa NNW 4.0mph /  6.4km/h 8.0mph /  12.9km/h 22% 0.00in /  0mm 134.0 W/m2
17:38 77.7 °F /  25.4 °C 35.8 °F /  2.1 °C 30.11in /  1019.5hPa NE 4.9mph /  7.9km/h 5.0mph /  8km/h 22% 0.00in /  0mm 107.0 W/m2
17:45 77.7 °F /  25.4 °C 35.8 °F /  2.1 °C 30.11in /  1019.5hPa NNE 2.9mph /  4.7km/h 5.0mph /  8km/h 22% 0.00in /  0mm 91.0 W/m2
17:51 77.5 °F /  25.3 °C 35.8 °F /  2.1 °C 30.11in /  1019.5hPa NNE 2.0mph /  3.2km/h 4.0mph /  6.4km/h 22% 0.00in /  0mm 76.0 W/m2
17:57 77.4 °F /  25.2 °C 35.6 °F /  2 °C 30.11in /  1019.5hPa North 0.9mph /  1.4km/h 3.0mph /  4.8km/h 22% 0.00in /  0mm 49.0 W/m2
18:03 77.0 °F /  25 °C 36.3 °F /  2.4 °C 30.11in /  1019.5hPa Calm   6.0mph /  9.7km/h 23% 0.00in /  0mm 35.0 W/m2
18:09 76.8 °F /  24.9 °C 36.1 °F /  2.3 °C 30.12in /  1019.9hPa Calm     23% 0.00in /  0mm 28.0 W/m2
18:15 76.5 °F /  24.7 °C 36.0 °F /  2.2 °C 30.12in /  1019.9hPa Calm   3.0mph /  4.8km/h 23% 0.00in /  0mm 21.0 W/m2
18:21 76.3 °F /  24.6 °C 36.9 °F /  2.7 °C 30.12in /  1019.9hPa Calm   3.0mph /  4.8km/h 24% 0.00in /  0mm 16.0 W/m2
18:27 75.7 °F /  24.3 °C 36.3 °F /  2.4 °C 30.13in /  1020.2hPa Calm   8.0mph /  12.9km/h 24% 0.00in /  0mm 9.0 W/m2
18:33 75.4 °F /  24.1 °C 38.1 °F /  3.4 °C 30.13in /  1020.2hPa NNW 6.9mph /  11.1km/h 14.0mph /  22.5km/h 26% 0.00in /  0mm 5.0 W/m2
18:39 74.8 °F /  23.8 °C 37.6 °F /  3.1 °C 30.14in /  1020.5hPa NNE 6.0mph /  9.7km/h 11.0mph /  17.7km/h 26% 0.00in /  0mm 0.0 W/m2
18:45 74.3 °F /  23.5 °C 37.2 °F /  2.9 °C 30.14in /  1020.5hPa North 0.9mph /  1.4km/h 7.0mph /  11.3km/h 26% 0.00in /  0mm 0.0 W/m2
18:56 73.6 °F /  23.1 °C 37.6 °F /  3.1 °C 30.14in /  1020.5hPa NNW 2.9mph /  4.7km/h 4.0mph /  6.4km/h 27% 0.00in /  0mm 0.0 W/m2
19:02 73.0 °F /  22.8 °C 37.9 °F /  3.3 °C 30.14in /  1020.5hPa NNE 4.0mph /  6.4km/h 7.0mph /  11.3km/h 28% 0.00in /  0mm 0.0 W/m2
19:08 72.9 °F /  22.7 °C 38.7 °F /  3.7 °C 30.14in /  1020.5hPa NNE 4.9mph /  7.9km/h 5.0mph /  8km/h 29% 0.00in /  0mm 0.0 W/m2
19:14 72.5 °F /  22.5 °C 38.5 °F /  3.6 °C 30.14in /  1020.5hPa NNW 4.9mph /  7.9km/h 5.0mph /  8km/h 29% 0.00in /  0mm 0.0 W/m2
19:20 72.3 °F /  22.4 °C 38.3 °F /  3.5 °C 30.15in /  1020.9hPa North 0.9mph /  1.4km/h 4.0mph /  6.4km/h 29% 0.00in /  0mm 0.0 W/m2
19:26 72.0 °F /  22.2 °C 37.9 °F /  3.3 °C 30.15in /  1020.9hPa Calm   3.0mph /  4.8km/h 29% 0.00in /  0mm 0.0 W/m2
19:32 71.8 °F /  22.1 °C 38.7 °F /  3.7 °C 30.16in /  1021.2hPa Calm   1.0mph /  1.6km/h 30% 0.00in /  0mm 0.0 W/m2
19:38 71.4 °F /  21.9 °C 38.3 °F /  3.5 °C 30.16in /  1021.2hPa Calm   2.0mph /  3.2km/h 30% 0.00in /  0mm 0.0 W/m2
19:44 71.1 °F /  21.7 °C 38.8 °F /  3.8 °C 30.16in /  1021.2hPa Calm     31% 0.00in /  0mm 0.0 W/m2
19:51 70.9 °F /  21.6 °C 38.7 °F /  3.7 °C 30.17in /  1021.6hPa Calm   1.0mph /  1.6km/h 31% 0.00in /  0mm 0.0 W/m2
19:57 70.5 °F /  21.4 °C 39.2 °F /  4 °C 30.18in /  1021.9hPa NW 0.9mph /  1.4km/h 6.0mph /  9.7km/h 32% 0.00in /  0mm 0.0 W/m2
20:03 70.2 °F /  21.2 °C 38.8 °F /  3.8 °C 30.18in /  1021.9hPa West 0.9mph /  1.4km/h 1.0mph /  1.6km/h 32% 0.00in /  0mm 0.0 W/m2
20:11 70.0 °F /  21.1 °C 39.6 °F /  4.2 °C 30.19in /  1022.2hPa Calm   2.0mph /  3.2km/h 33% 0.00in /  0mm 0.0 W/m2
20:17 69.4 °F /  20.8 °C 40.6 °F /  4.8 °C 30.20in /  1022.6hPa WNW 0.9mph /  1.4km/h 6.0mph /  9.7km/h 35% 0.00in /  0mm 0.0 W/m2
20:23 69.1 °F /  20.6 °C 41.0 °F /  5 °C 30.20in /  1022.6hPa WSW 2.9mph /  4.7km/h 3.0mph /  4.8km/h 36% 0.00in /  0mm 0.0 W/m2
20:29 68.4 °F /  20.2 °C 41.7 °F /  5.4 °C 30.21in /  1022.9hPa West 2.0mph /  3.2km/h 6.0mph /  9.7km/h 38% 0.00in /  0mm 0.0 W/m2
20:36 67.6 °F /  19.8 °C 42.4 °F /  5.8 °C 30.21in /  1022.9hPa West 0.9mph /  1.4km/h 6.0mph /  9.7km/h 40% 0.00in /  0mm 0.0 W/m2
20:42 67.1 °F /  19.5 °C 42.6 °F /  5.9 °C 30.21in /  1022.9hPa WSW 0.9mph /  1.4km/h 2.0mph /  3.2km/h 41% 0.00in /  0mm 0.0 W/m2
20:48 66.6 °F /  19.2 °C 42.1 °F /  5.6 °C 30.22in /  1023.2hPa Calm   1.0mph /  1.6km/h 41% 0.00in /  0mm 0.0 W/m2
20:54 66.2 °F /  19 °C 42.4 °F /  5.8 °C 30.21in /  1022.9hPa NNE 0.9mph /  1.4km/h 1.0mph /  1.6km/h 42% 0.00in /  0mm 0.0 W/m2
21:00 65.8 °F /  18.8 °C 42.8 °F /  6 °C 30.21in /  1022.9hPa Calm   1.0mph /  1.6km/h 43% 0.00in /  0mm 0.0 W/m2
21:06 65.7 °F /  18.7 °C 42.6 °F /  5.9 °C 30.21in /  1022.9hPa Calm     43% 0.00in /  0mm 0.0 W/m2
21:12 65.1 °F /  18.4 °C 42.1 °F /  5.6 °C 30.21in /  1022.9hPa Calm     43% 0.00in /  0mm 0.0 W/m2
21:18 64.9 °F /  18.3 °C 42.4 °F /  5.8 °C 30.21in /  1022.9hPa NNE 0.9mph /  1.4km/h 1.0mph /  1.6km/h 44% 0.00in /  0mm 0.0 W/m2
21:25 64.8 °F /  18.2 °C 42.3 °F /  5.7 °C 30.21in /  1022.9hPa Calm     44% 0.00in /  0mm 0.0 W/m2
21:31 64.2 °F /  17.9 °C 41.9 °F /  5.5 °C 30.21in /  1022.9hPa Calm   2.0mph /  3.2km/h 44% 0.00in /  0mm 0.0 W/m2
21:37 63.9 °F /  17.7 °C 41.5 °F /  5.3 °C 30.21in /  1022.9hPa Calm   1.0mph /  1.6km/h 44% 0.00in /  0mm 0.0 W/m2
21:43 63.7 °F /  17.6 °C 41.9 °F /  5.5 °C 30.21in /  1022.9hPa Calm     45% 0.00in /  0mm 0.0 W/m2
21:49 63.3 °F /  17.4 °C 41.5 °F /  5.3 °C 30.21in /  1022.9hPa NE 0.9mph /  1.4km/h 2.0mph /  3.2km/h 45% 0.00in /  0mm 0.0 W/m2
21:55 63.1 °F /  17.3 °C 42.1 °F /  5.6 °C 30.21in /  1022.9hPa Calm   1.0mph /  1.6km/h 46% 0.00in /  0mm 0.0 W/m2
22:02 63.1 °F /  17.3 °C 42.1 °F /  5.6 °C 30.21in /  1022.9hPa Calm     46% 0.00in /  0mm 0.0 W/m2
22:08 63.0 °F /  17.2 °C 41.9 °F /  5.5 °C 30.22in /  1023.2hPa Calm     46% 0.00in /  0mm 0.0 W/m2
22:14 63.0 °F /  17.2 °C 41.9 °F /  5.5 °C 30.21in /  1022.9hPa Calm     46% 0.00in /  0mm 0.0 W/m2
22:20 62.8 °F /  17.1 °C 41.7 °F /  5.4 °C 30.22in /  1023.2hPa Calm   1.0mph /  1.6km/h 46% 0.00in /  0mm 0.0 W/m2
22:26 62.8 °F /  17.1 °C 42.3 °F /  5.7 °C 30.22in /  1023.2hPa Calm   1.0mph /  1.6km/h 47% 0.00in /  0mm 0.0 W/m2
22:32 62.8 °F /  17.1 °C 42.3 °F /  5.7 °C 30.21in /  1022.9hPa Calm     47% 0.00in /  0mm 0.0 W/m2
22:38 62.8 °F /  17.1 °C 42.3 °F /  5.7 °C 30.22in /  1023.2hPa NE 4.9mph /  7.9km/h 5.0mph /  8km/h 47% 0.00in /  0mm 0.0 W/m2
22:45 62.8 °F /  17.1 °C 42.3 °F /  5.7 °C 30.21in /  1022.9hPa Calm   3.0mph /  4.8km/h 47% 0.00in /  0mm 0.0 W/m2
22:51 62.6 °F /  17 °C 41.5 °F /  5.3 °C 30.22in /  1023.2hPa Calm     46% 0.00in /  0mm 0.0 W/m2
22:57 62.4 °F /  16.9 °C 41.4 °F /  5.2 °C 30.22in /  1023.2hPa Calm     46% 0.00in /  0mm 0.0 W/m2
23:03 62.2 °F /  16.8 °C 41.7 °F /  5.4 °C 30.22in /  1023.2hPa Calm   2.0mph /  3.2km/h 47% 0.00in /  0mm 0.0 W/m2
23:09 62.2 °F /  16.8 °C 41.7 °F /  5.4 °C 30.22in /  1023.2hPa Calm   3.0mph /  4.8km/h 47% 0.00in /  0mm 0.0 W/m2
23:15 62.1 °F /  16.7 °C 41.5 °F /  5.3 °C 30.22in /  1023.2hPa Calm   1.0mph /  1.6km/h 47% 0.00in /  0mm 0.0 W/m2
23:21 62.1 °F /  16.7 °C 41.5 °F /  5.3 °C 30.22in /  1023.2hPa Calm     47% 0.00in /  0mm 0.0 W/m2
23:28 61.9 °F /  16.6 °C 41.4 °F /  5.2 °C 30.22in /  1023.2hPa Calm     47% 0.00in /  0mm 0.0 W/m2
23:34 61.5 °F /  16.4 °C 41.2 °F /  5.1 °C 30.22in /  1023.2hPa Calm     47% 0.00in /  0mm 0.0 W/m2
23:40 61.2 °F /  16.2 °C 40.8 °F /  4.9 °C 30.22in /  1023.2hPa Calm     47% 0.00in /  0mm 0.0 W/m2
23:46 61.0 °F /  16.1 °C 41.2 °F /  5.1 °C 30.22in /  1023.2hPa Calm     48% 0.00in /  0mm 0.0 W/m2
23:52 60.6 °F /  15.9 °C 40.8 °F /  4.9 °C 30.23in /  1023.6hPa Calm     48% 0.00in /  0mm 0.0 W/m2
23:58 60.4 °F /  15.8 °C 41.2 °F /  5.1 °C 30.22in /  1023.2hPa Calm     49% 0.00in /  0mm 0.0 W/m2
Olympia, Windhoek, Namibia
Compliments of Weather Underground - 3 mb